Time;durP1;ratioP1;P1;durP2;ratioP2;P2;SDS_P1;SDS_P2;PMS_P1;PMS_P2;Temp;Humidity;BMP_temperature;BMP_pressure;BME280_temperature;BME280_humidity;BME280_pressure;Samples;Min_cycle;Max_cycle;Signal;HPM_P1;HPM_P2
2021/06/07 00:03:30;;;;;;;8.77;7.82;;;;;;;-140.79;100.00;63287.88;4969547;23;20544;-83
2021/06/07 00:05:55;;;;;;;10.00;7.55;;;;;;;-140.79;100.00;63287.88;4972471;28;20035;-83
2021/06/07 00:08:21;;;;;;;9.02;7.85;;;;;;;-140.79;100.00;63287.88;4972521;28;20027;-82
2021/06/07 00:10:47;;;;;;;10.68;8.07;;;;;;;-140.79;100.00;63287.88;4955742;28;20015;-83
2021/06/07 00:13:12;;;;;;;8.30;7.45;;;;;;;-140.79;100.00;63287.88;4972952;28;20022;-83
2021/06/07 00:15:38;;;;;;;8.80;7.90;;;;;;;-140.79;100.00;63287.88;4972830;28;20022;-84
2021/06/07 00:18:04;;;;;;;9.85;7.97;;;;;;;-140.79;100.00;63287.88;4972748;28;20030;-83
2021/06/07 00:20:37;;;;;;;8.85;7.85;;;;;;;-140.79;100.00;63287.88;4971977;28;20023;-83
2021/06/07 00:23:03;;;;;;;9.73;8.48;;;;;;;-140.79;100.00;63287.88;4975205;28;20108;-83
2021/06/07 00:25:29;;;;;;;11.40;8.10;;;;;;;-140.79;100.00;63287.88;4973450;28;20077;-83
2021/06/07 00:27:54;;;;;;;9.50;8.15;;;;;;;-140.79;100.00;63287.88;4971890;28;20046;-83
2021/06/07 00:30:20;;;;;;;8.98;7.57;;;;;;;-140.79;100.00;63287.88;4938992;28;20027;-83
2021/06/07 00:32:45;;;;;;;10.20;8.10;;;;;;;-140.79;100.00;63287.88;4972001;28;20050;-82
2021/06/07 00:35:12;;;;;;;9.95;7.50;;;;;;;-140.79;100.00;63287.88;4972557;28;20030;-84
2021/06/07 00:37:37;;;;;;;8.88;7.82;;;;;;;-140.79;100.00;63287.88;4972719;28;20027;-83
2021/06/07 00:40:03;;;;;;;8.18;7.07;;;;;;;-140.79;100.00;63287.88;4972032;28;20057;-83
2021/06/07 00:42:29;;;;;;;10.80;8.00;;;;;;;-140.79;100.00;63287.88;4954555;28;20030;-85
2021/06/07 00:44:54;;;;;;;8.20;7.20;;;;;;;-140.79;100.00;63287.88;4972014;28;20085;-82
2021/06/07 00:47:20;;;;;;;9.07;7.55;;;;;;;-140.79;100.00;63287.88;4972245;28;20078;-84
2021/06/07 00:49:46;;;;;;;11.43;7.03;;;;;;;-140.79;100.00;63287.88;4971816;28;20038;-83
2021/06/07 00:52:11;;;;;;;12.02;7.75;;;;;;;-140.79;100.00;63287.88;4972229;28;20572;-85
2021/06/07 00:54:37;;;;;;;8.38;7.30;;;;;;;-140.79;100.00;63287.88;4971646;28;20026;-83
2021/06/07 00:57:02;;;;;;;10.27;7.28;;;;;;;-140.79;100.00;63287.88;4971596;28;20035;-82
2021/06/07 00:59:28;;;;;;;9.68;7.78;;;;;;;-140.79;100.00;63287.88;4971529;28;20042;-83
2021/06/07 01:01:53;;;;;;;7.57;6.63;;;;;;;-140.79;100.00;63287.88;4971844;28;20081;-82
2021/06/07 01:04:18;;;;;;;8.68;7.43;;;;;;;-140.79;100.00;63287.88;4971728;28;20043;-83
2021/06/07 01:06:44;;;;;;;8.95;7.20;;;;;;;-140.79;100.00;63287.88;4971985;28;20027;-82
2021/06/07 01:09:09;;;;;;;9.70;7.78;;;;;;;-140.79;100.00;63287.88;4971779;28;20041;-83
2021/06/07 01:11:35;;;;;;;8.63;7.60;;;;;;;-140.79;100.00;63287.88;4973128;28;20022;-83
2021/06/07 01:14:01;;;;;;;9.07;7.75;;;;;;;-140.79;100.00;63287.88;4973084;28;20026;-84
2021/06/07 01:16:26;;;;;;;8.82;7.82;;;;;;;-140.79;100.00;63287.88;4954425;28;20078;-83
2021/06/07 01:18:52;;;;;;;9.43;7.85;;;;;;;-140.79;100.00;63287.88;4972010;28;20026;-83
2021/06/07 01:21:20;;;;;;;9.25;8.32;;;;;;;-140.79;100.00;63287.88;4937846;28;20082;-83
2021/06/07 01:23:46;;;;;;;8.55;7.68;;;;;;;-140.79;100.00;63287.88;4971527;28;20030;-83
2021/06/07 01:26:11;;;;;;;11.18;8.40;;;;;;;-140.79;100.00;63287.88;4972121;28;20031;-84
2021/06/07 01:28:37;;;;;;;9.95;7.88;;;;;;;-140.79;100.00;63287.88;4972132;28;20023;-83
2021/06/07 01:31:03;;;;;;;9.55;8.52;;;;;;;-140.79;100.00;63287.88;4953658;28;20032;-83
2021/06/07 01:33:29;;;;;;;8.95;8.05;;;;;;;-140.79;100.00;63287.88;4971381;28;20022;-83
2021/06/07 01:35:55;;;;;;;8.68;7.82;;;;;;;-140.79;100.00;63287.88;4954000;28;20081;-83
2021/06/07 01:38:21;;;;;;;10.45;8.68;;;;;;;-140.79;100.00;63287.88;4971467;28;20735;-83
2021/06/07 01:40:48;;;;;;;8.85;7.95;;;;;;;-140.79;100.00;63287.88;4971181;28;20040;-84
2021/06/07 01:43:14;;;;;;;9.13;8.32;;;;;;;-140.79;100.00;63287.88;4971159;28;20062;-84
2021/06/07 01:45:41;;;;;;;9.07;8.15;;;;;;;-140.79;100.00;63287.88;4971262;28;20031;-83
2021/06/07 01:48:08;;;;;;;9.57;8.57;;;;;;;-140.79;100.00;63287.88;4969951;28;20042;-83
2021/06/07 01:50:34;;;;;;;9.25;8.20;;;;;;;-140.79;100.00;63287.88;4971256;28;20033;-83
2021/06/07 01:52:59;;;;;;;9.10;7.95;;;;;;;-140.79;100.00;63287.88;4970802;28;20106;-82
2021/06/07 01:55:30;;;;;;;9.00;8.20;;;;;;;-140.79;100.00;63287.88;4970609;28;20396;-82
2021/06/07 01:57:56;;;;;;;9.23;8.32;;;;;;;-140.79;100.00;63287.88;4971039;28;20472;-83
2021/06/07 02:00:25;;;;;;;10.13;8.50;;;;;;;-140.79;100.00;63287.88;4971993;28;20043;-85
2021/06/07 02:02:50;;;;;;;9.63;8.65;;;;;;;-140.79;100.00;63287.88;4972876;28;20047;-83
2021/06/07 02:05:25;;;;;;;9.95;8.80;;;;;;;-140.79;100.00;63287.88;4971276;28;20404;-83
2021/06/07 02:07:52;;;;;;;9.82;8.60;;;;;;;-140.79;100.00;63287.88;4971187;28;20037;-82
2021/06/07 02:10:17;;;;;;;10.93;8.10;;;;;;;-140.79;100.00;63287.88;4970979;28;20031;-83
2021/06/07 02:12:43;;;;;;;9.73;8.73;;;;;;;-140.79;100.00;63287.88;4971351;28;20042;-83
2021/06/07 02:15:09;;;;;;;9.68;8.18;;;;;;;-140.79;100.00;63287.88;4971136;28;20023;-83
2021/06/07 02:17:35;;;;;;;9.73;8.35;;;;;;;-140.79;100.00;63287.88;4971273;28;20030;-82
2021/06/07 02:20:01;;;;;;;9.48;8.48;;;;;;;-140.79;100.00;63287.88;4953467;28;20370;-83
2021/06/07 02:22:26;;;;;;;9.50;8.27;;;;;;;-140.79;100.00;63287.88;4953720;28;20026;-83
2021/06/07 02:24:52;;;;;;;9.15;8.25;;;;;;;-140.79;100.00;63287.88;4970728;28;20015;-83
2021/06/07 02:27:17;;;;;;;9.23;7.93;;;;;;;-140.79;100.00;63287.88;4970984;28;20029;-82
2021/06/07 02:29:43;;;;;;;10.00;8.15;;;;;;;-140.79;100.00;63287.88;4970908;28;20094;-84
2021/06/07 02:32:08;;;;;;;9.73;8.73;;;;;;;-140.79;100.00;63287.88;4970697;28;20019;-83
2021/06/07 02:34:33;;;;;;;9.15;8.05;;;;;;;-140.79;100.00;63287.88;4970592;28;20531;-84
2021/06/07 02:36:59;;;;;;;9.05;8.15;;;;;;;-140.79;100.00;63287.88;4970520;28;20026;-83
2021/06/07 02:39:26;;;;;;;9.82;8.63;;;;;;;-140.79;100.00;63287.88;4970159;28;20038;-83
2021/06/07 02:41:52;;;;;;;10.65;8.57;;;;;;;-140.79;100.00;63287.88;4970913;28;20027;-84
2021/06/07 02:44:21;;;;;;;9.68;8.65;;;;;;;-140.79;100.00;63287.88;4953696;28;20054;-83
2021/06/07 02:46:47;;;;;;;9.63;8.50;;;;;;;-140.79;100.00;63287.88;4971224;28;20590;-83
2021/06/07 02:49:12;;;;;;;9.10;8.05;;;;;;;-140.79;100.00;63287.88;4956543;28;20034;-82
2021/06/07 02:51:38;;;;;;;9.70;8.70;;;;;;;-140.79;100.00;63287.88;4972197;28;20073;-83
2021/06/07 02:54:04;;;;;;;9.25;8.23;;;;;;;-140.79;100.00;63287.88;4974689;28;20033;-83
2021/06/07 02:56:29;;;;;;;9.30;7.90;;;;;;;-140.79;100.00;63287.88;4974205;28;20066;-83
2021/06/07 02:58:55;;;;;;;8.32;7.53;;;;;;;-140.79;100.00;63287.88;4973999;28;20523;-84
2021/06/07 03:01:20;;;;;;;9.15;8.25;;;;;;;-140.79;100.00;63287.88;4973844;28;20089;-81
2021/06/07 03:03:46;;;;;;;9.18;8.23;;;;;;;-140.79;100.00;63287.88;4973818;28;20062;-83
2021/06/07 03:06:11;;;;;;;9.15;8.23;;;;;;;-140.79;100.00;63287.88;4974034;28;20027;-83
2021/06/07 03:08:37;;;;;;;9.77;8.77;;;;;;;-140.79;100.00;63287.88;4956803;28;20058;-83
2021/06/07 03:11:05;;;;;;;9.18;7.93;;;;;;;-140.79;100.00;63287.88;4973987;28;20449;-85
2021/06/07 03:13:31;;;;;;;9.05;8.15;;;;;;;-140.79;100.00;63287.88;4973682;28;20027;-82
2021/06/07 03:15:56;;;;;;;8.43;7.63;;;;;;;-140.79;100.00;63287.88;4973928;28;20443;-83
2021/06/07 03:18:22;;;;;;;9.43;8.52;;;;;;;-140.79;100.00;63287.88;4973899;28;20023;-83
2021/06/07 03:20:47;;;;;;;10.60;8.77;;;;;;;-140.79;100.00;63287.88;4973566;28;20042;-83
2021/06/07 03:23:19;;;;;;;10.35;8.00;;;;;;;-140.79;100.00;63287.88;4956461;28;20621;-82
2021/06/07 03:25:46;;;;;;;10.50;8.90;;;;;;;-140.79;100.00;63287.88;4956299;28;20506;-82
2021/06/07 03:28:11;;;;;;;9.15;8.30;;;;;;;-140.79;100.00;63287.88;4973605;28;20110;-84
2021/06/07 03:30:37;;;;;;;11.52;8.63;;;;;;;-140.79;100.00;63287.88;4973884;28;20556;-83
2021/06/07 03:33:04;;;;;;;10.23;8.82;;;;;;;-140.79;100.00;63287.88;4973749;28;20027;-82
2021/06/07 03:35:29;;;;;;;11.23;8.52;;;;;;;-140.79;100.00;63287.88;4972534;28;20031;-82
2021/06/07 03:37:55;;;;;;;9.88;8.57;;;;;;;-140.79;100.00;63287.88;4959502;28;20018;-82
2021/06/07 03:40:23;;;;;;;9.27;8.38;;;;;;;-140.79;100.00;63287.88;4957305;28;20113;-83
2021/06/07 03:42:48;;;;;;;10.05;8.98;;;;;;;-140.79;100.00;63287.88;4956511;28;20035;-83
2021/06/07 03:45:15;;;;;;;9.80;8.70;;;;;;;-140.79;100.00;63287.88;4986203;28;20037;-82
2021/06/07 03:47:41;;;;;;;9.68;8.73;;;;;;;-140.79;100.00;63287.88;4989704;28;20769;-84
2021/06/07 03:50:07;;;;;;;9.93;8.93;;;;;;;-140.79;100.00;63287.88;4973178;28;20065;-83
2021/06/07 03:52:33;;;;;;;11.55;9.32;;;;;;;-140.79;100.00;63287.88;4973518;28;20106;-83
2021/06/07 03:54:58;;;;;;;14.23;9.75;;;;;;;-140.79;100.00;63287.88;4973458;28;20428;-82
2021/06/07 03:57:24;;;;;;;10.63;8.73;;;;;;;-140.79;100.00;63287.88;4972969;28;20030;-83
2021/06/07 03:59:49;;;;;;;10.77;9.57;;;;;;;-140.79;100.00;63287.88;4973703;28;20038;-84
2021/06/07 04:02:17;;;;;;;9.63;8.73;;;;;;;-140.79;100.00;63287.88;4982895;28;20493;-81
2021/06/07 04:04:43;;;;;;;9.60;8.60;;;;;;;-140.79;100.00;63287.88;4990120;28;20548;-81
2021/06/07 04:07:08;;;;;;;10.23;9.20;;;;;;;-140.79;100.00;63287.88;4990759;28;20018;-79
2021/06/07 04:09:34;;;;;;;11.50;8.35;;;;;;;-140.79;100.00;63287.88;4960611;28;20037;-74
2021/06/07 04:11:59;;;;;;;10.88;8.80;;;;;;;-140.79;100.00;63287.88;4969752;28;20429;-74
2021/06/07 04:14:25;;;;;;;11.05;8.90;;;;;;;-140.79;100.00;63287.88;4968496;28;20406;-71
2021/06/07 04:16:51;;;;;;;10.70;8.90;;;;;;;-140.79;100.00;63287.88;4951370;28;20019;-80
2021/06/07 04:19:16;;;;;;;10.30;9.27;;;;;;;-140.79;100.00;63287.88;4951749;28;20521;-70
2021/06/07 04:21:41;;;;;;;10.52;8.63;;;;;;;-140.79;100.00;63287.88;4952304;28;20043;-78
2021/06/07 04:24:07;;;;;;;10.57;8.75;;;;;;;-140.79;100.00;63287.88;4951587;28;20066;-78
2021/06/07 04:26:34;;;;;;;10.70;8.70;;;;;;;-140.79;100.00;63287.88;4950502;28;20497;-77
2021/06/07 04:28:59;;;;;;;9.05;8.20;;;;;;;-140.79;100.00;63287.88;4970795;28;20030;-79
2021/06/07 04:31:25;;;;;;;12.68;8.70;;;;;;;-140.79;100.00;63287.88;4952351;28;20425;-79
2021/06/07 04:33:51;;;;;;;11.05;8.57;;;;;;;-140.79;100.00;63287.88;4960882;28;20050;-74
2021/06/07 04:36:16;;;;;;;9.80;8.80;;;;;;;-140.79;100.00;63287.88;4988066;28;20030;-75
2021/06/07 04:38:42;;;;;;;10.77;8.70;;;;;;;-140.79;100.00;63287.88;4984156;28;20020;-79
2021/06/07 04:41:07;;;;;;;10.15;8.48;;;;;;;-140.79;100.00;63287.88;4983571;28;20043;-72
2021/06/07 04:43:33;;;;;;;9.38;8.32;;;;;;;-140.79;100.00;63287.88;4968832;28;20023;-74
2021/06/07 04:45:58;;;;;;;8.88;7.97;;;;;;;-140.79;100.00;63287.88;4991030;28;20043;-71
2021/06/07 04:48:23;;;;;;;8.90;8.00;;;;;;;-140.79;100.00;63287.88;4972332;28;20085;-78
2021/06/07 04:50:51;;;;;;;9.07;7.90;;;;;;;-140.79;100.00;63287.88;4966335;28;20042;-76
2021/06/07 04:53:17;;;;;;;8.65;7.72;;;;;;;-140.79;100.00;63287.88;4968891;28;20049;-76
2021/06/07 04:55:47;;;;;;;11.80;8.02;;;;;;;-140.79;100.00;63287.88;4947668;28;20034;-75
2021/06/07 04:58:24;;;;;;;;;;;;;;;-140.79;100.00;63287.88;4962022;28;20034;-80
2021/06/07 05:00:52;;;;;;;9.30;7.75;;;;;;;-140.79;100.00;63287.88;4975721;28;19918;-77
2021/06/07 05:03:17;;;;;;;10.07;7.68;;;;;;;-140.79;100.00;63287.88;4950528;28;20050;-72
2021/06/07 05:05:43;;;;;;;11.27;8.27;;;;;;;-140.79;100.00;63287.88;4966118;28;20031;-74
2021/06/07 05:08:09;;;;;;;9.65;8.05;;;;;;;-140.79;100.00;63287.88;4944410;28;20027;-78
2021/06/07 05:10:34;;;;;;;9.45;8.23;;;;;;;-140.79;100.00;63287.88;4967876;28;20054;-76
2021/06/07 05:13:00;;;;;;;9.27;7.70;;;;;;;-140.79;100.00;63287.88;4967808;28;20066;-76
2021/06/07 05:15:26;;;;;;;10.07;7.97;;;;;;;-140.79;100.00;63287.88;4950087;28;20025;-75
2021/06/07 05:17:51;;;;;;;9.57;8.40;;;;;;;-140.79;100.00;63287.88;4950064;28;20019;-74
2021/06/07 05:20:19;;;;;;;9.82;8.23;;;;;;;-140.79;100.00;63287.88;4966274;28;20034;-74
2021/06/07 05:22:45;;;;;;;10.40;7.90;;;;;;;-140.79;100.00;63287.88;4949476;28;20100;-74
2021/06/07 05:25:11;;;;;;;11.35;7.95;;;;;;;-140.79;100.00;63287.88;4935154;28;20598;-72
2021/06/07 05:27:36;;;;;;;13.23;8.23;;;;;;;-140.79;100.00;63287.88;4967471;28;20033;-73
2021/06/07 05:30:03;;;;;;;9.18;8.13;;;;;;;-140.79;100.00;63287.88;4948511;28;20038;-74
2021/06/07 05:32:29;;;;;;;9.40;8.48;;;;;;;-140.79;100.00;63287.88;4967197;28;20113;-75
2021/06/07 05:34:54;;;;;;;11.38;8.23;;;;;;;-140.79;100.00;63287.88;4966626;28;20494;-70
2021/06/07 05:37:20;;;;;;;10.80;8.13;;;;;;;-140.79;100.00;63287.88;4968595;28;20480;-72
2021/06/07 05:39:45;;;;;;;10.18;8.27;;;;;;;-140.79;100.00;63287.88;4950156;28;20030;-77
2021/06/07 05:42:11;;;;;;;8.70;7.90;;;;;;;-140.79;100.00;63287.88;4936073;28;20038;-77
2021/06/07 05:44:36;;;;;;;9.85;8.20;;;;;;;-140.79;100.00;63287.88;4957904;28;20410;-75
2021/06/07 05:47:02;;;;;;;9.55;8.55;;;;;;;-140.79;100.00;63287.88;4967419;28;20073;-76
2021/06/07 05:49:28;;;;;;;9.77;7.63;;;;;;;-140.79;100.00;63287.88;4957920;28;20027;-77
2021/06/07 05:51:53;;;;;;;10.68;8.25;;;;;;;-140.79;100.00;63287.88;4963100;28;20030;-76
2021/06/07 05:54:18;;;;;;;8.85;7.45;;;;;;;-140.79;100.00;63287.88;4958726;28;20192;-76
2021/06/07 05:56:44;;;;;;;10.50;7.97;;;;;;;-140.79;100.00;63287.88;4953884;28;20091;-75
2021/06/07 05:59:10;;;;;;;8.52;7.50;;;;;;;-140.79;100.00;63287.88;4966806;28;20494;-73
2021/06/07 06:01:35;;;;;;;8.43;7.30;;;;;;;-140.79;100.00;63287.88;4967368;28;20399;-79
2021/06/07 06:04:01;;;;;;;9.10;7.20;;;;;;;-140.79;100.00;63287.88;4937940;29;20055;-81
2021/06/07 06:06:27;;;;;;;8.93;6.80;;;;;;;-140.79;100.00;63287.88;4963718;28;20042;-83
2021/06/07 06:08:52;;;;;;;10.27;7.53;;;;;;;-140.79;100.00;63287.88;4950989;28;20050;-76
2021/06/07 06:11:19;;;;;;;9.25;7.10;;;;;;;-140.79;100.00;63287.88;4960599;28;20035;-76
2021/06/07 06:13:45;;;;;;;8.65;7.03;;;;;;;-140.79;100.00;63287.88;4911121;28;20118;-78
2021/06/07 06:16:11;;;;;;;10.93;7.25;;;;;;;-140.79;100.00;63287.88;4949070;28;20140;-77
2021/06/07 06:18:38;;;;;;;8.80;6.60;;;;;;;-140.79;100.00;63287.88;4930509;28;20046;-78
2021/06/07 06:21:04;;;;;;;9.85;7.20;;;;;;;-140.79;100.00;63287.88;4949274;28;20121;-77
2021/06/07 06:23:30;;;;;;;9.20;6.68;;;;;;;-140.79;100.00;63287.88;4966861;28;20050;-77
2021/06/07 06:25:55;;;;;;;10.05;6.88;;;;;;;-140.79;100.00;63287.88;4933166;28;20125;-76
2021/06/07 06:28:21;;;;;;;8.80;7.38;;;;;;;-140.79;100.00;63287.88;4951510;28;20035;-78
2021/06/07 06:30:46;;;;;;;9.25;7.28;;;;;;;-140.79;100.00;63287.88;4972628;28;20033;-78
2021/06/07 06:33:15;;;;;;;9.30;6.85;;;;;;;-140.79;100.00;63287.88;4971275;28;20473;-78
2021/06/07 06:35:41;;;;;;;8.07;6.28;;;;;;;-140.79;100.00;63287.88;4960002;28;20042;-77
2021/06/07 06:38:07;;;;;;;7.22;6.35;;;;;;;-140.79;100.00;63287.88;4955708;28;20035;-77
2021/06/07 06:40:34;;;;;;;7.60;6.80;;;;;;;-140.79;100.00;63287.88;4974889;28;20565;-77
2021/06/07 06:43:04;;;;;;;8.18;6.53;;;;;;;-140.79;100.00;63287.88;4958736;28;20031;-78
2021/06/07 06:45:29;;;;;;;7.20;6.28;;;;;;;-140.79;100.00;63287.88;4950336;28;20109;-78
2021/06/07 06:47:56;;;;;;;6.93;6.28;;;;;;;-140.79;100.00;63287.88;4970291;28;20113;-79
2021/06/07 06:50:25;;;;;;;7.47;6.47;;;;;;;-140.79;100.00;63287.88;4966780;28;20045;-78
2021/06/07 06:52:51;;;;;;;6.97;6.27;;;;;;;-140.79;100.00;63287.88;4968240;28;20088;-78
2021/06/07 06:55:17;;;;;;;7.60;6.78;;;;;;;-140.79;100.00;63287.88;4938242;28;20050;-78
2021/06/07 06:57:42;;;;;;;7.80;6.50;;;;;;;-140.79;100.00;63287.88;4971578;28;20034;-78
2021/06/07 07:00:09;;;;;;;7.22;6.10;;;;;;;-140.79;100.00;63287.88;4969034;28;20053;-78
2021/06/07 07:02:34;;;;;;;7.00;6.30;;;;;;;-140.79;100.00;63287.88;4972016;28;20054;-79
2021/06/07 07:05:00;;;;;;;8.73;6.85;;;;;;;-140.79;100.00;63287.88;4953697;28;20030;-78
2021/06/07 07:07:26;;;;;;;7.10;6.28;;;;;;;-140.79;100.00;63287.88;4971429;28;20035;-77
2021/06/07 07:09:54;;;;;;;7.60;6.50;;;;;;;-140.79;100.00;63287.88;4970940;28;20513;-79
2021/06/07 07:12:24;;;;;;;7.38;6.25;;;;;;;-140.79;100.00;63287.88;4953134;28;20086;-78
2021/06/07 07:14:50;;;;;;;6.88;6.18;;;;;;;-140.79;100.00;63287.88;4973165;28;20042;-79
2021/06/07 07:17:15;;;;;;;7.25;6.55;;;;;;;-140.79;100.00;63287.88;4955500;28;20027;-78
2021/06/07 07:19:42;;;;;;;7.40;6.28;;;;;;;-140.79;100.00;63287.88;4956195;28;20038;-77
2021/06/07 07:22:07;;;;;;;7.82;7.00;;;;;;;-140.79;100.00;63287.88;4939075;28;20031;-78
2021/06/07 07:24:33;;;;;;;7.18;6.47;;;;;;;-140.79;100.00;63287.88;4949448;28;20089;-77
2021/06/07 07:26:58;;;;;;;7.10;6.40;;;;;;;-140.79;100.00;63287.88;4971713;28;20039;-78
2021/06/07 07:29:24;;;;;;;7.03;6.15;;;;;;;-140.79;100.00;63287.88;4954336;28;20034;-78
2021/06/07 07:31:49;;;;;;;7.70;6.35;;;;;;;-140.79;100.00;63287.88;4955673;28;20474;-77
2021/06/07 07:34:15;;;;;;;6.97;6.30;;;;;;;-140.79;100.00;63287.88;4954926;28;20682;-78
2021/06/07 07:36:41;;;;;;;6.28;5.70;;;;;;;-140.79;100.00;63287.88;4972834;28;20027;-77
2021/06/07 07:39:06;;;;;;;6.65;5.93;;;;;;;-140.79;100.00;63287.88;4972556;28;20038;-78
2021/06/07 07:41:32;;;;;;;7.20;6.28;;;;;;;-140.79;100.00;63287.88;4955095;28;20023;-78
2021/06/07 07:43:57;;;;;;;7.15;6.43;;;;;;;-140.79;100.00;63287.88;4957072;28;20034;-77
2021/06/07 07:46:23;;;;;;;6.57;5.97;;;;;;;-140.79;100.00;63287.88;4954327;28;20033;-79
2021/06/07 07:48:49;;;;;;;6.80;6.10;;;;;;;-140.79;100.00;63287.88;4955609;28;20030;-77
2021/06/07 07:51:14;;;;;;;7.05;6.35;;;;;;;-140.79;100.00;63287.88;4973033;28;20033;-78
2021/06/07 07:53:40;;;;;;;8.45;6.18;;;;;;;-140.79;100.00;63287.88;4973332;28;20019;-78
2021/06/07 07:56:07;;;;;;;6.75;6.13;;;;;;;-140.79;100.00;63287.88;4954612;28;20030;-78
2021/06/07 07:58:32;;;;;;;6.70;5.90;;;;;;;-140.79;100.00;63287.88;4972856;28;20042;-79
2021/06/07 08:00:58;;;;;;;7.05;6.45;;;;;;;-140.79;100.00;63287.88;4971949;28;20085;-78
2021/06/07 08:03:27;;;;;;;6.63;5.80;;;;;;;-140.79;100.00;63287.88;4954248;28;20055;-78
2021/06/07 08:05:52;;;;;;;6.40;5.68;;;;;;;-140.79;100.00;63287.88;4955007;28;20418;-78
2021/06/07 08:08:18;;;;;;;6.88;5.75;;;;;;;-140.79;100.00;63287.88;4972345;28;20397;-79
2021/06/07 08:10:43;;;;;;;7.25;5.90;;;;;;;-140.79;100.00;63287.88;4953939;28;20062;-78
2021/06/07 08:13:09;;;;;;;7.07;5.80;;;;;;;-140.79;100.00;63287.88;4955004;28;20026;-78
2021/06/07 08:15:34;;;;;;;7.00;6.05;;;;;;;-140.79;100.00;63287.88;4963578;28;20027;-79
2021/06/07 08:18:01;;;;;;;7.70;6.25;;;;;;;-140.79;100.00;63287.88;4954758;28;20486;-78
2021/06/07 08:20:27;;;;;;;6.90;6.10;;;;;;;-140.79;100.00;63287.88;4954584;28;20065;-78
2021/06/07 08:22:54;;;;;;;7.28;5.97;;;;;;;-140.79;100.00;63287.88;4954734;28;20038;-78
2021/06/07 08:25:20;;;;;;;6.78;5.85;;;;;;;-140.79;100.00;63287.88;4938813;28;20030;-78
2021/06/07 08:27:46;;;;;;;6.63;6.03;;;;;;;-140.79;100.00;63287.88;4972215;28;20031;-77
2021/06/07 08:30:12;;;;;;;6.40;5.80;;;;;;;-140.79;100.00;63287.88;4938562;28;20057;-77
2021/06/07 08:32:37;;;;;;;6.40;5.80;;;;;;;-140.79;100.00;63287.88;4971142;28;20032;-77
2021/06/07 08:35:07;;;;;;;7.38;5.95;;;;;;;-140.79;100.00;63287.88;4970244;28;20130;-77
2021/06/07 08:37:32;;;;;;;6.25;5.65;;;;;;;-140.79;100.00;63287.88;4971330;28;20035;-77
2021/06/07 08:39:58;;;;;;;6.57;5.78;;;;;;;-140.79;100.00;63287.88;4971395;28;20129;-77
2021/06/07 08:42:24;;;;;;;7.35;6.18;;;;;;;-140.79;100.00;63287.88;4972192;28;20039;-79
2021/06/07 08:44:49;;;;;;;6.40;5.80;;;;;;;-140.79;100.00;63287.88;4938620;28;20494;-78
2021/06/07 08:47:15;;;;;;;6.47;5.88;;;;;;;-140.79;100.00;63287.88;4954693;28;20113;-78
2021/06/07 08:49:41;;;;;;;5.97;5.38;;;;;;;-140.79;100.00;63287.88;4938173;28;20023;-78
2021/06/07 08:52:06;;;;;;;7.00;6.30;;;;;;;-140.79;100.00;63287.88;4971389;28;20038;-78
2021/06/07 08:54:32;;;;;;;6.70;6.00;;;;;;;-140.79;100.00;63287.88;4972357;28;20034;-77
2021/06/07 08:56:58;;;;;;;6.60;6.00;;;;;;;-140.79;100.00;63287.88;4971682;28;20030;-77
2021/06/07 08:59:23;;;;;;;6.90;6.20;;;;;;;-140.79;100.00;63287.88;4935205;28;20114;-78
2021/06/07 09:01:51;;;;;;;6.60;5.88;;;;;;;-140.79;100.00;63287.88;4934783;28;20030;-75
2021/06/07 09:04:20;;;;;;;7.25;5.78;;;;;;;-140.79;100.00;63287.88;4949572;28;20047;-78
2021/06/07 09:06:46;;;;;;;6.38;5.78;;;;;;;-140.79;100.00;63287.88;4952750;28;20030;-74
2021/06/07 09:09:13;;;;;;;6.25;5.65;;;;;;;-140.79;100.00;63287.88;4968301;28;20033;-73
2021/06/07 09:11:56;;;;;;;6.13;5.30;;;;;;;-140.79;100.00;63287.88;4967707;28;20110;-76
2021/06/07 09:14:29;;;;;;;6.70;5.38;;;;;;;-140.79;100.00;63287.88;4968331;28;20053;-79
2021/06/07 09:16:55;;;;;;;6.60;5.15;;;;;;;-140.79;100.00;63287.88;4966507;28;20031;-77
2021/06/07 09:19:25;;;;;;;7.03;5.97;;;;;;;-140.79;100.00;63287.88;4968031;28;20106;-78
2021/06/07 09:21:51;;;;;;;8.65;6.38;;;;;;;-140.79;100.00;63287.88;4975858;28;20026;-77
2021/06/07 09:24:16;;;;;;;8.02;6.25;;;;;;;-140.79;100.00;63287.88;4954049;28;20034;-82
2021/06/07 09:26:44;;;;;;;8.65;6.93;;;;;;;-140.79;100.00;63287.88;4973773;28;20066;-73
2021/06/07 09:29:29;;;;;;;8.77;6.40;;;;;;;-140.79;100.00;63287.88;4949403;28;20063;-72
2021/06/07 09:31:55;;;;;;;8.77;6.60;;;;;;;-140.79;100.00;63287.88;4965342;28;20061;-72
2021/06/07 09:34:30;;;;;;;9.38;6.72;;;;;;;-140.79;100.00;63287.88;4966553;28;20490;-72
2021/06/07 09:37:06;;;;;;;8.73;7.03;;;;;;;-140.79;100.00;63287.88;4966667;28;20037;-72
2021/06/07 09:39:32;;;;;;;9.68;6.30;;;;;;;-140.79;100.00;63287.88;4966460;28;20023;-73
2021/06/07 09:42:09;;;;;;;11.07;6.00;;;;;;;-140.79;100.00;63287.88;4963382;28;20037;-71
2021/06/07 09:44:43;;;;;;;8.63;5.85;;;;;;;-140.79;100.00;63287.88;4966931;28;20062;-70
2021/06/07 09:47:18;;;;;;;7.50;6.05;;;;;;;-140.79;100.00;63287.88;4962923;28;20089;-71
2021/06/07 09:49:43;;;;;;;9.48;6.25;;;;;;;-140.79;100.00;63287.88;4966817;28;20812;-75
2021/06/07 09:52:15;;;;;;;8.50;6.35;;;;;;;-140.79;100.00;63287.88;4964652;28;20062;-73
2021/06/07 09:54:40;;;;;;;10.40;6.53;;;;;;;-140.79;100.00;63287.88;4961319;28;20073;-72
2021/06/07 09:57:06;;;;;;;11.00;6.93;;;;;;;-140.79;100.00;63287.88;4948646;28;20031;-73
2021/06/07 09:59:40;;;;;;;8.00;6.43;;;;;;;-140.79;100.00;63287.88;4961404;28;20034;-73
2021/06/07 10:02:19;;;;;;;9.32;6.90;;;;;;;-140.79;100.00;63287.88;4952480;28;20030;-72
2021/06/07 10:04:57;;;;;;;8.27;6.90;;;;;;;-140.79;100.00;63287.88;4964861;28;20430;-72
2021/06/07 10:07:23;;;;;;;9.93;6.45;;;;;;;-140.79;100.00;63287.88;4958910;28;20043;-71
2021/06/07 10:10:14;;;;;;;10.95;7.28;;;;;;;-140.79;100.00;63287.88;4905227;28;20044;-72
2021/06/07 10:12:40;;;;;;;9.27;6.80;;;;;;;-140.79;100.00;63287.88;4935125;29;20091;-73
2021/06/07 10:15:11;;;;;;;9.43;7.32;;;;;;;-140.79;100.00;63287.88;4930742;29;20039;-72
2021/06/07 10:17:36;;;;;;;9.07;7.25;;;;;;;-140.79;100.00;63287.88;4940785;29;20039;-72
2021/06/07 10:22:31;;;;;;;10.70;7.00;;;;;;;-140.79;100.00;63287.88;4942078;29;20046;-73
2021/06/07 10:24:57;;;;;;;8.25;7.18;;;;;;;-140.79;100.00;63287.88;4942428;29;20051;-73
2021/06/07 10:27:22;;;;;;;8.52;7.50;;;;;;;-140.79;100.00;63287.88;4926650;29;20067;-73
2021/06/07 10:29:49;;;;;;;8.50;7.03;;;;;;;-140.79;100.00;63287.88;4943473;29;20049;-74
2021/06/07 10:32:17;;;;;;;8.23;7.32;;;;;;;-140.79;100.00;63287.88;4930137;29;20039;-71
2021/06/07 10:34:53;;;;;;;9.18;8.02;;;;;;;-140.79;100.00;63287.88;4943438;29;20036;-74
2021/06/07 10:37:19;;;;;;;10.68;8.48;;;;;;;-140.79;100.00;63287.88;4942007;29;20365;-75
2021/06/07 10:39:45;;;;;;;10.50;8.27;;;;;;;-140.79;100.00;63287.88;4942705;29;20553;-73
2021/06/07 10:42:17;;;;;;;9.93;8.02;;;;;;;-140.79;100.00;63287.88;4925585;29;20122;-73
2021/06/07 10:44:48;;;;;;;9.65;7.80;;;;;;;-140.79;100.00;63287.88;4942451;29;20050;-73
2021/06/07 10:47:22;;;;;;;8.70;7.75;;;;;;;-140.79;100.00;63287.88;4942001;29;20042;-75
2021/06/07 10:50:07;;;;;;;9.95;7.15;;;;;;;-140.79;100.00;63287.88;4928515;29;20030;-68
2021/06/07 10:52:49;;;;;;;8.80;7.20;;;;;;;-140.79;100.00;63287.88;4942074;29;20032;-75
2021/06/07 10:55:17;;;;;;;7.82;6.75;;;;;;;-140.79;100.00;63287.88;4942285;29;20043;-75
2021/06/07 10:57:49;;;;;;;9.73;7.35;;;;;;;-140.79;100.00;63287.88;4912522;29;20031;-79
2021/06/07 11:00:17;;;;;;;7.80;6.50;;;;;;;-140.79;100.00;63287.88;4927563;29;20099;-79
2021/06/07 11:02:46;;;;;;;7.75;6.97;;;;;;;-140.79;100.00;63287.88;4941595;29;20055;-79
2021/06/07 11:05:19;;;;;;;7.43;6.60;;;;;;;-140.79;100.00;63287.88;4942128;29;20043;-76
2021/06/07 11:08:04;;;;;;;8.90;6.93;;;;;;;-140.79;100.00;63287.88;4942104;29;20275;-75
2021/06/07 11:10:33;;;;;;;9.07;7.40;;;;;;;-140.79;100.00;63287.88;4928412;29;20028;-75